createdAt,value
2023-03-25T00:00:17.415Z,32.38
2023-03-25T00:03:04.776Z,33.08
2023-03-25T00:05:31.676Z,33.95
2023-03-25T00:07:59.140Z,33.83
2023-03-25T00:10:26.524Z,33.30
2023-03-25T00:12:53.739Z,31.75
2023-03-25T00:15:22.230Z,31.67
2023-03-25T00:17:49.670Z,30.25
2023-03-25T00:20:16.749Z,30.13
2023-03-25T00:22:44.617Z,29.83
2023-03-25T00:25:17.445Z,28.73
2023-03-25T00:27:46.964Z,30.13
2023-03-25T00:30:19.184Z,29.85
2023-03-25T00:32:50.184Z,30.40
2023-03-25T00:35:19.514Z,30.58
2023-03-25T00:37:52.191Z,29.88
2023-03-25T00:40:19.148Z,29.33
2023-03-25T00:42:50.232Z,29.13
2023-03-25T00:45:17.469Z,28.15
2023-03-25T00:47:44.740Z,28.27
2023-03-25T00:50:12.267Z,28.73
2023-03-25T00:52:39.783Z,30.05
2023-03-25T00:55:08.220Z,28.75
2023-03-25T00:57:36.488Z,29.70
2023-03-25T01:00:09.514Z,28.52
2023-03-25T01:02:39.403Z,28.75
2023-03-25T01:05:07.233Z,29.20
2023-03-25T01:07:35.595Z,28.45
2023-03-25T01:10:03.990Z,30.10
2023-03-25T01:12:31.621Z,27.75
2023-03-25T01:14:59.135Z,30.38
2023-03-25T01:17:26.457Z,29.73
2023-03-25T01:19:53.461Z,29.67
2023-03-25T01:22:20.903Z,29.45
2023-03-25T01:24:47.860Z,29.48
2023-03-25T01:27:15.040Z,31.50
2023-03-25T01:29:42.076Z,30.85
2023-03-25T01:32:09.258Z,29.48
2023-03-25T01:34:38.543Z,31.40
2023-03-25T01:37:06.416Z,30.50
2023-03-25T01:39:33.458Z,30.38
2023-03-25T01:42:01.071Z,29.90
2023-03-25T01:44:29.169Z,31.08
2023-03-25T01:47:01.801Z,29.83
2023-03-25T01:49:33.793Z,30.80
2023-03-25T01:52:07.532Z,29.05
